Time;durP1;ratioP1;P1;durP2;ratioP2;P2;SDS_P1;SDS_P2;PMS_P1;PMS_P2;Temp;Humidity;BMP_temperature;BMP_pressure;BME280_temperature;BME280_humidity;BME280_pressure;Samples;Min_cycle;Max_cycle;Signal;HPM_P1;HPM_P2
2022/09/06 00:01:12;;;;;;;8.20;3.92;;;;;;;;;;4973027;28;99180;-71
2022/09/06 00:03:39;;;;;;;4.05;3.70;;;;;;;;;;5010192;28;100226;-72
2022/09/06 00:06:09;;;;;;;4.43;3.65;;;;;;;;;;5012294;28;98560;-71
2022/09/06 00:08:36;;;;;;;5.70;3.15;;;;;;;;;;5012132;28;99995;-71
2022/09/06 00:11:02;;;;;;;3.45;3.15;;;;;;;;;;5013902;28;99212;-72
2022/09/06 00:13:29;;;;;;;8.32;3.53;;;;;;;;;;5012350;28;99027;-71
2022/09/06 00:15:55;;;;;;;3.58;3.28;;;;;;;;;;5011101;28;99669;-71
2022/09/06 00:18:22;;;;;;;6.30;3.72;;;;;;;;;;5010512;28;98477;-72
2022/09/06 00:20:48;;;;;;;4.20;3.40;;;;;;;;;;4983760;28;99352;-72
2022/09/06 00:23:15;;;;;;;3.85;3.55;;;;;;;;;;4989556;28;99536;-73
2022/09/06 00:25:41;;;;;;;5.22;3.92;;;;;;;;;;4991187;28;98956;-72
2022/09/06 00:28:07;;;;;;;6.38;3.80;;;;;;;;;;4992162;28;99858;-72
2022/09/06 00:30:34;;;;;;;8.63;4.57;;;;;;;;;;4989845;28;102175;-72
2022/09/06 00:33:00;;;;;;;4.32;3.80;;;;;;;;;;4995132;28;98505;-72
2022/09/06 00:35:27;;;;;;;4.97;4.38;;;;;;;;;;4992187;28;99224;-73
2022/09/06 00:37:58;;;;;;;5.53;4.50;;;;;;;;;;4991125;28;97718;-72
2022/09/06 00:40:25;;;;;;;7.90;4.50;;;;;;;;;;4991913;28;98551;-72
2022/09/06 00:42:51;;;;;;;6.78;4.10;;;;;;;;;;4990923;28;100588;-71
2022/09/06 00:45:18;;;;;;;4.50;4.00;;;;;;;;;;4990581;28;99177;-72
2022/09/06 00:47:44;;;;;;;7.28;4.53;;;;;;;;;;4991522;28;100737;-71
2022/09/06 00:50:12;;;;;;;7.70;4.75;;;;;;;;;;4990278;28;99702;-72
2022/09/06 00:52:39;;;;;;;6.63;4.30;;;;;;;;;;4990804;28;98819;-72
2022/09/06 00:55:06;;;;;;;6.38;4.95;;;;;;;;;;4994605;28;99983;-72
2022/09/06 00:57:33;;;;;;;4.70;4.30;;;;;;;;;;4991516;28;98558;-72
2022/09/06 01:00:01;;;;;;;9.43;4.95;;;;;;;;;;4990356;28;100539;-72
2022/09/06 01:02:27;;;;;;;5.72;4.43;;;;;;;;;;4991544;28;98627;-71
2022/09/06 01:04:54;;;;;;;4.95;4.45;;;;;;;;;;4990951;28;98573;-72
2022/09/06 01:07:32;;;;;;;5.28;4.78;;;;;;;;;;4990892;28;99944;-72
2022/09/06 01:10:11;;;;;;;7.45;4.60;;;;;;;;;;4990844;28;100343;-72
2022/09/06 01:12:46;;;;;;;5.97;4.75;;;;;;;;;;4991086;28;98493;-71
2022/09/06 01:15:18;;;;;;;8.38;5.45;;;;;;;;;;4991342;28;99916;-72
2022/09/06 01:18:02;;;;;;;9.70;5.80;;;;;;;;;;4994031;28;100381;-72
2022/09/06 01:20:37;;;;;;;9.25;5.45;;;;;;;;;;4978090;28;99096;-72
2022/09/06 01:23:22;;;;;;;8.43;5.75;;;;;;;;;;4971000;28;99374;-72
2022/09/06 01:26:04;;;;;;;8.93;5.95;;;;;;;;;;4970763;28;98462;-72
2022/09/06 01:28:31;;;;;;;7.63;5.93;;;;;;;;;;4972060;28;99045;-72
2022/09/06 01:31:15;;;;;;;10.73;6.22;;;;;;;;;;4970414;28;100264;-72
2022/09/06 01:33:50;;;;;;;9.32;5.97;;;;;;;;;;4971049;28;98634;-72
2022/09/06 01:36:19;;;;;;;8.75;6.07;;;;;;;;;;4970646;28;99124;-72
2022/09/06 01:38:49;;;;;;;6.70;5.90;;;;;;;;;;4981972;28;99190;-72
2022/09/06 01:41:15;;;;;;;7.00;6.32;;;;;;;;;;4991459;28;98522;-72
2022/09/06 01:43:43;;;;;;;6.20;5.60;;;;;;;;;;4990739;28;100242;-72
2022/09/06 01:46:29;;;;;;;7.05;4.93;;;;;;;;;;4990739;28;98560;-72
2022/09/06 01:49:14;;;;;;;6.50;4.85;;;;;;;;;;4989780;28;99373;-72
2022/09/06 01:51:53;;;;;;;7.68;5.07;;;;;;;;;;4990263;28;99274;-72
2022/09/06 01:54:38;;;;;;;6.20;5.25;;;;;;;;;;4991315;28;97608;-72
2022/09/06 01:57:13;;;;;;;9.02;6.07;;;;;;;;;;4989815;28;98536;-72
2022/09/06 01:59:43;;;;;;;5.93;5.53;;;;;;;;;;4990129;28;99522;-72
2022/09/06 02:02:12;;;;;;;8.75;6.22;;;;;;;;;;4993347;28;99278;-72
2022/09/06 02:04:45;;;;;;;7.10;6.50;;;;;;;;;;4990253;28;100377;-73
2022/09/06 02:07:23;;;;;;;7.85;6.15;;;;;;;;;;4991111;28;99844;-72
2022/09/06 02:09:52;;;;;;;9.07;7.28;;;;;;;;;;4989835;28;99254;-72
2022/09/06 02:12:20;;;;;;;8.30;7.38;;;;;;;;;;4977592;28;99353;-72
2022/09/06 02:15:01;;;;;;;8.40;7.72;;;;;;;;;;4970461;28;98544;-72
2022/09/06 02:17:33;;;;;;;8.70;7.82;;;;;;;;;;4972905;28;100087;-72
2022/09/06 02:20:05;;;;;;;8.57;7.80;;;;;;;;;;4990430;28;100299;-72
2022/09/06 02:22:31;;;;;;;;;;;;;;;;;;4991065;28;99223;-72
2022/09/06 02:24:59;;;;;;;9.18;8.27;;;;;;;;;;4992667;28;128964;-72
2022/09/06 02:27:25;;;;;;;10.50;9.50;;;;;;;;;;4990216;28;99882;-72
2022/09/06 02:29:52;;;;;;;11.00;9.90;;;;;;;;;;4990000;28;100872;-72
2022/09/06 02:32:19;;;;;;;12.00;8.15;;;;;;;;;;4992245;28;99519;-72
2022/09/06 02:34:46;;;;;;;9.13;8.15;;;;;;;;;;4993966;28;99151;-72
2022/09/06 02:37:14;;;;;;;8.40;7.80;;;;;;;;;;4992785;28;99261;-72
2022/09/06 02:39:40;;;;;;;9.32;8.40;;;;;;;;;;4992997;28;100438;-72
2022/09/06 02:42:11;;;;;;;8.55;7.85;;;;;;;;;;4981497;28;98486;-72
2022/09/06 02:44:37;;;;;;;10.40;9.40;;;;;;;;;;4973271;28;99944;-72
2022/09/06 02:47:04;;;;;;;9.85;8.77;;;;;;;;;;4976509;28;100380;-72
2022/09/06 02:49:31;;;;;;;10.35;9.30;;;;;;;;;;4974499;28;99155;-72
2022/09/06 02:51:57;;;;;;;10.32;9.40;;;;;;;;;;4978979;28;100980;-73
2022/09/06 02:54:24;;;;;;;10.10;9.07;;;;;;;;;;4994168;28;98510;-72
2022/09/06 02:56:50;;;;;;;10.30;9.30;;;;;;;;;;4993115;28;99296;-73
2022/09/06 02:59:17;;;;;;;16.77;9.63;;;;;;;;;;4992283;28;100198;-73
2022/09/06 03:01:44;;;;;;;9.85;8.95;;;;;;;;;;4992992;28;98540;-73
2022/09/06 03:04:10;;;;;;;10.48;9.50;;;;;;;;;;4992974;28;98888;-72
2022/09/06 03:06:37;;;;;;;11.02;10.05;;;;;;;;;;4991720;28;99344;-72
2022/09/06 03:09:03;;;;;;;10.70;9.80;;;;;;;;;;4996775;28;97800;-72
2022/09/06 03:11:29;;;;;;;14.45;9.90;;;;;;;;;;4991045;28;99670;-72
2022/09/06 03:13:56;;;;;;;11.02;9.98;;;;;;;;;;4992014;28;98806;-72
2022/09/06 03:16:22;;;;;;;10.52;9.60;;;;;;;;;;4992273;28;99228;-72
2022/09/06 03:18:48;;;;;;;13.23;9.75;;;;;;;;;;4992348;28;100527;-72
2022/09/06 03:21:15;;;;;;;11.45;10.25;;;;;;;;;;4992773;28;98547;-72
2022/09/06 03:23:41;;;;;;;11.80;9.85;;;;;;;;;;4992011;28;100349;-72
2022/09/06 03:26:07;;;;;;;15.30;10.27;;;;;;;;;;4992311;28;99355;-72
2022/09/06 03:28:34;;;;;;;11.88;10.77;;;;;;;;;;4977373;28;98907;-72
2022/09/06 03:31:00;;;;;;;12.02;10.70;;;;;;;;;;4975248;28;99118;-72
2022/09/06 03:33:26;;;;;;;12.27;10.77;;;;;;;;;;4972347;28;98223;-72
2022/09/06 03:35:54;;;;;;;14.40;10.82;;;;;;;;;;4972023;28;98474;-72
2022/09/06 03:38:22;;;;;;;15.35;11.52;;;;;;;;;;4972381;28;99699;-72
2022/09/06 03:40:49;;;;;;;12.02;10.48;;;;;;;;;;4970745;28;99222;-72
2022/09/06 03:43:16;;;;;;;12.20;11.20;;;;;;;;;;4980463;28;100075;-72
2022/09/06 03:45:49;;;;;;;12.77;11.57;;;;;;;;;;4991317;28;100086;-72
2022/09/06 03:48:16;;;;;;;18.15;11.35;;;;;;;;;;4991055;28;98900;-72
2022/09/06 03:50:46;;;;;;;18.77;11.88;;;;;;;;;;4991519;28;99907;-72
2022/09/06 03:53:13;;;;;;;11.48;10.45;;;;;;;;;;4994689;28;100147;-72
2022/09/06 03:55:42;;;;;;;12.82;11.70;;;;;;;;;;4990816;28;99270;-72
2022/09/06 03:58:09;;;;;;;12.60;11.35;;;;;;;;;;4989891;28;99471;-72
2022/09/06 04:00:35;;;;;;;15.63;11.85;;;;;;;;;;4991697;28;98527;-72
2022/09/06 04:03:02;;;;;;;15.02;12.20;;;;;;;;;;4990797;28;99059;-72
2022/09/06 04:05:28;;;;;;;14.35;12.50;;;;;;;;;;4991041;28;100400;-72
2022/09/06 04:07:54;;;;;;;12.63;11.52;;;;;;;;;;4991388;28;98522;-72
2022/09/06 04:10:21;;;;;;;13.85;12.10;;;;;;;;;;4991204;28;99557;-73
2022/09/06 04:12:47;;;;;;;15.20;11.77;;;;;;;;;;4993793;28;99343;-72
2022/09/06 04:15:13;;;;;;;14.25;12.23;;;;;;;;;;4991635;28;100027;-72
2022/09/06 04:17:42;;;;;;;16.58;13.38;;;;;;;;;;4990649;28;99361;-72
2022/09/06 04:20:09;;;;;;;14.88;13.20;;;;;;;;;;4991489;28;98470;-72
2022/09/06 04:22:35;;;;;;;14.02;12.52;;;;;;;;;;4991085;28;98962;-72
2022/09/06 04:25:02;;;;;;;13.27;12.07;;;;;;;;;;4990848;28;99343;-72
2022/09/06 04:27:28;;;;;;;16.23;11.15;;;;;;;;;;4977001;28;99045;-72
2022/09/06 04:29:55;;;;;;;20.00;11.23;;;;;;;;;;4969973;28;99174;-72
2022/09/06 04:32:22;;;;;;;11.63;10.57;;;;;;;;;;4971165;28;99191;-72
2022/09/06 04:34:48;;;;;;;14.10;10.70;;;;;;;;;;4988264;28;98724;-72
2022/09/06 04:37:18;;;;;;;11.30;10.18;;;;;;;;;;4990234;28;100332;-72
2022/09/06 04:39:45;;;;;;;10.25;9.35;;;;;;;;;;4990489;28;98520;-72
2022/09/06 04:42:12;;;;;;;11.88;10.02;;;;;;;;;;4992189;28;99866;-72
2022/09/06 04:44:38;;;;;;;10.18;9.13;;;;;;;;;;4976231;28;100298;-72
2022/09/06 04:47:06;;;;;;;8.57;7.88;;;;;;;;;;4972233;28;98090;-72
2022/09/06 04:49:34;;;;;;;11.13;7.35;;;;;;;;;;4971851;28;98426;-72
2022/09/06 04:52:01;;;;;;;9.13;7.95;;;;;;;;;;4986141;28;101314;-72
2022/09/06 04:54:27;;;;;;;8.30;7.35;;;;;;;;;;4990085;28;99220;-72
2022/09/06 04:56:54;;;;;;;7.78;6.97;;;;;;;;;;4993487;28;100542;-72
2022/09/06 04:59:20;;;;;;;7.90;7.20;;;;;;;;;;4991043;28;98440;-72
2022/09/06 05:01:46;;;;;;;9.20;7.50;;;;;;;;;;4991182;28;99092;-72
2022/09/06 05:04:13;;;;;;;14.27;6.97;;;;;;;;;;4991132;28;100070;-72
2022/09/06 05:06:40;;;;;;;8.40;7.03;;;;;;;;;;4990472;28;98856;-72
2022/09/06 05:09:07;;;;;;;7.90;6.82;;;;;;;;;;4991889;28;100075;-72
2022/09/06 05:11:33;;;;;;;8.00;6.78;;;;;;;;;;4990438;28;98960;-72
2022/09/06 05:13:59;;;;;;;7.97;7.32;;;;;;;;;;4989449;28;98566;-72
2022/09/06 05:16:26;;;;;;;9.32;7.75;;;;;;;;;;4991586;28;99886;-72
2022/09/06 05:18:52;;;;;;;7.78;7.10;;;;;;;;;;4992862;28;100843;-72
2022/09/06 05:21:18;;;;;;;10.90;8.00;;;;;;;;;;4990914;28;100683;-73
2022/09/06 05:23:45;;;;;;;12.68;8.13;;;;;;;;;;4989759;28;99426;-71
2022/09/06 05:26:11;;;;;;;9.00;7.10;;;;;;;;;;4985510;28;99065;-72
2022/09/06 05:28:37;;;;;;;10.20;8.68;;;;;;;;;;4978450;28;99004;-72
2022/09/06 05:31:11;;;;;;;9.50;8.32;;;;;;;;;;4990663;28;100595;-72
2022/09/06 05:33:38;;;;;;;11.30;8.07;;;;;;;;;;4989700;28;98919;-72
2022/09/06 05:36:04;;;;;;;10.02;8.02;;;;;;;;;;4991665;28;99927;-72
2022/09/06 05:38:31;;;;;;;13.65;8.65;;;;;;;;;;4990668;28;99312;-72
2022/09/06 05:40:57;;;;;;;11.55;8.80;;;;;;;;;;4992948;28;98985;-72
2022/09/06 05:43:24;;;;;;;8.98;7.85;;;;;;;;;;4990675;28;100939;-72
2022/09/06 05:45:50;;;;;;;10.00;8.20;;;;;;;;;;4990582;28;98832;-72
2022/09/06 05:48:18;;;;;;;9.30;8.52;;;;;;;;;;4989768;28;100022;-72
2022/09/06 05:50:44;;;;;;;11.20;8.13;;;;;;;;;;4990227;28;100365;-72
2022/09/06 05:53:10;;;;;;;10.18;8.07;;;;;;;;;;4990750;28;98832;-72
2022/09/06 05:55:36;;;;;;;9.57;8.55;;;;;;;;;;4989597;28;99982;-72
2022/09/06 05:58:08;;;;;;;10.38;8.10;;;;;;;;;;4970677;28;99297;-72
2022/09/06 06:00:34;;;;;;;9.18;8.27;;;;;;;;;;5007316;28;97919;-72
2022/09/06 06:03:00;;;;;;;9.65;8.85;;;;;;;;;;4992055;28;99558;-72
2022/09/06 06:05:27;;;;;;;10.55;9.30;;;;;;;;;;4991383;28;98511;-72
2022/09/06 06:07:54;;;;;;;10.05;8.40;;;;;;;;;;4991388;28;100080;-72
2022/09/06 06:10:20;;;;;;;9.65;8.68;;;;;;;;;;4990560;28;99631;-72
2022/09/06 06:12:47;;;;;;;10.05;9.13;;;;;;;;;;4992417;28;98813;-72
2022/09/06 06:15:13;;;;;;;13.40;9.80;;;;;;;;;;4993110;28;99217;-72
2022/09/06 06:17:39;;;;;;;11.63;9.00;;;;;;;;;;4993431;28;100257;-72
2022/09/06 06:20:06;;;;;;;10.48;9.40;;;;;;;;;;4993669;28;98614;-72
2022/09/06 06:22:32;;;;;;;12.10;8.82;;;;;;;;;;4981653;28;99161;-72
2022/09/06 06:24:59;;;;;;;11.02;8.65;;;;;;;;;;4974022;28;97743;-72
2022/09/06 06:27:25;;;;;;;14.75;9.73;;;;;;;;;;4974511;28;99232;-72
2022/09/06 06:29:51;;;;;;;11.90;9.05;;;;;;;;;;4992333;28;100086;-72
2022/09/06 06:32:18;;;;;;;10.30;8.93;;;;;;;;;;4994004;28;99280;-72
2022/09/06 06:34:44;;;;;;;11.13;9.63;;;;;;;;;;4993322;28;99908;-72
2022/09/06 06:37:10;;;;;;;9.93;9.00;;;;;;;;;;4992500;28;100145;-72
2022/09/06 06:39:37;;;;;;;12.88;10.00;;;;;;;;;;4993388;28;98515;-72
2022/09/06 06:42:04;;;;;;;10.65;9.57;;;;;;;;;;4992577;28;99910;-72
2022/09/06 06:44:40;;;;;;;10.20;9.13;;;;;;;;;;5010573;28;101703;-72
2022/09/06 06:47:06;;;;;;;10.70;9.65;;;;;;;;;;4981727;28;99987;-72
2022/09/06 06:49:33;;;;;;;10.55;9.55;;;;;;;;;;4973770;28;98728;-72
2022/09/06 06:51:59;;;;;;;13.38;10.20;;;;;;;;;;4973377;28;98567;-74
2022/09/06 06:54:25;;;;;;;12.00;9.32;;;;;;;;;;4973296;28;99323;-71
2022/09/06 06:56:52;;;;;;;12.25;9.77;;;;;;;;;;4975203;28;100011;-71
2022/09/06 06:59:19;;;;;;;10.50;9.50;;;;;;;;;;4971097;28;99042;-72
2022/09/06 07:01:45;;;;;;;10.85;9.82;;;;;;;;;;4981236;28;100002;-71
2022/09/06 07:04:13;;;;;;;11.38;10.38;;;;;;;;;;4989216;28;100260;-71
2022/09/06 07:06:49;;;;;;;14.18;9.95;;;;;;;;;;4981561;28;99087;-71
2022/09/06 07:09:36;;;;;;;10.18;9.27;;;;;;;;;;4972233;28;99430;-71
2022/09/06 07:12:22;;;;;;;11.80;10.80;;;;;;;;;;4973060;28;98590;-70
2022/09/06 07:14:48;;;;;;;11.63;9.45;;;;;;;;;;4970769;28;99540;-71
2022/09/06 07:17:15;;;;;;;11.55;9.63;;;;;;;;;;4973405;28;100482;-71
2022/09/06 07:19:41;;;;;;;9.68;8.77;;;;;;;;;;4973585;28;99212;-71
2022/09/06 07:22:27;;;;;;;10.88;9.10;;;;;;;;;;4986342;28;100192;-71
2022/09/06 07:24:54;;;;;;;10.57;9.45;;;;;;;;;;4989427;28;99835;-73
2022/09/06 07:27:20;;;;;;;11.68;10.48;;;;;;;;;;4990494;28;100129;-72
2022/09/06 07:30:07;;;;;;;10.77;9.43;;;;;;;;;;4988672;28;99992;-71
2022/09/06 07:32:33;;;;;;;12.98;9.93;;;;;;;;;;4973367;28;98848;-71
2022/09/06 07:35:00;;;;;;;10.50;9.60;;;;;;;;;;4980822;28;98887;-71
2022/09/06 07:37:26;;;;;;;12.82;10.32;;;;;;;;;;4970918;28;100225;-71
2022/09/06 07:39:52;;;;;;;11.68;10.45;;;;;;;;;;4970770;28;99531;-71
2022/09/06 07:42:19;;;;;;;12.32;11.07;;;;;;;;;;4971982;28;98451;-71
2022/09/06 07:44:45;;;;;;;11.90;10.75;;;;;;;;;;4971193;28;100168;-72
2022/09/06 07:47:11;;;;;;;13.32;10.57;;;;;;;;;;4969869;28;100446;-71
2022/09/06 07:49:58;;;;;;;16.42;10.38;;;;;;;;;;4971412;28;100968;-71
2022/09/06 07:52:44;;;;;;;14.45;9.93;;;;;;;;;;4974555;28;100723;-71
2022/09/06 07:55:30;;;;;;;10.07;9.20;;;;;;;;;;4991135;28;99046;-71
2022/09/06 07:57:57;;;;;;;10.45;9.15;;;;;;;;;;4991604;28;100240;-71
2022/09/06 08:00:24;;;;;;;11.20;8.43;;;;;;;;;;4992293;28;98550;-71
2022/09/06 08:02:50;;;;;;;10.15;8.20;;;;;;;;;;4991153;28;99998;-71
2022/09/06 08:05:16;;;;;;;10.30;9.00;;;;;;;;;;4992396;28;98619;-71
2022/09/06 08:08:03;;;;;;;17.20;10.23;;;;;;;;;;4991216;28;98489;-71
2022/09/06 08:10:50;;;;;;;9.88;7.80;;;;;;;;;;4990864;28;100252;-71
2022/09/06 08:13:16;;;;;;;11.93;9.43;;;;;;;;;;4990640;28;101167;-72
2022/09/06 08:15:43;;;;;;;14.30;9.20;;;;;;;;;;4991646;28;98449;-71
2022/09/06 08:18:10;;;;;;;15.57;9.60;;;;;;;;;;4991721;28;100354;-72
2022/09/06 08:20:36;;;;;;;10.38;9.32;;;;;;;;;;4992014;28;98774;-73
2022/09/06 08:23:07;;;;;;;8.90;7.85;;;;;;;;;;4988850;28;100082;-72
2022/09/06 08:25:34;;;;;;;8.13;7.07;;;;;;;;;;4991546;28;100296;-73
2022/09/06 08:28:00;;;;;;;12.27;8.18;;;;;;;;;;4991449;28;98507;-72
2022/09/06 08:30:28;;;;;;;8.70;7.90;;;;;;;;;;4991510;28;99001;-72
2022/09/06 08:32:55;;;;;;;10.10;8.00;;;;;;;;;;4991092;28;100630;-72
2022/09/06 08:35:21;;;;;;;7.88;6.63;;;;;;;;;;4995455;28;98534;-72
2022/09/06 08:37:48;;;;;;;7.45;6.75;;;;;;;;;;4989852;28;99931;-72
2022/09/06 08:40:18;;;;;;;8.25;7.47;;;;;;;;;;4991448;28;98518;-72
2022/09/06 08:42:45;;;;;;;8.18;7.45;;;;;;;;;;4978802;28;98434;-72
2022/09/06 08:45:13;;;;;;;8.18;7.03;;;;;;;;;;4985763;28;99372;-72
2022/09/06 08:47:39;;;;;;;7.95;7.20;;;;;;;;;;4989395;28;98447;-72
2022/09/06 08:50:06;;;;;;;7.93;7.32;;;;;;;;;;4970917;28;98955;-72
2022/09/06 08:52:35;;;;;;;8.13;7.32;;;;;;;;;;4979643;28;99462;-73
2022/09/06 08:55:19;;;;;;;10.23;8.10;;;;;;;;;;4972377;28;97735;-72
2022/09/06 08:58:03;;;;;;;7.93;7.18;;;;;;;;;;4973715;28;99277;-72
2022/09/06 09:00:30;;;;;;;7.97;7.05;;;;;;;;;;4971842;28;98482;-72
2022/09/06 09:02:56;;;;;;;7.70;6.97;;;;;;;;;;4971138;28;99346;-72
2022/09/06 09:05:23;;;;;;;7.90;7.05;;;;;;;;;;4970351;28;100082;-72
2022/09/06 09:08:01;;;;;;;10.85;7.68;;;;;;;;;;4971234;28;98510;-73
2022/09/06 09:10:35;;;;;;;7.43;6.75;;;;;;;;;;4971370;28;99074;-73
2022/09/06 09:13:03;;;;;;;8.50;6.85;;;;;;;;;;4969278;28;99816;-72
2022/09/06 09:15:29;;;;;;;7.15;5.88;;;;;;;;;;4971500;28;98419;-73
2022/09/06 09:17:56;;;;;;;11.27;6.53;;;;;;;;;;4971035;28;99286;-72
2022/09/06 09:20:22;;;;;;;9.43;7.03;;;;;;;;;;4973936;28;99350;-73
2022/09/06 09:22:48;;;;;;;6.65;6.05;;;;;;;;;;4971165;28;98434;-73
2022/09/06 09:25:17;;;;;;;5.80;5.30;;;;;;;;;;4969774;28;99875;-73
2022/09/06 09:27:44;;;;;;;7.75;6.65;;;;;;;;;;4971686;28;99321;-73
2022/09/06 09:30:10;;;;;;;7.70;6.22;;;;;;;;;;4991192;28;100616;-72
2022/09/06 09:32:57;;;;;;;7.00;6.20;;;;;;;;;;4989487;28;100654;-72
2022/09/06 09:35:26;;;;;;;6.88;6.22;;;;;;;;;;4990756;28;98622;-73
2022/09/06 09:38:01;;;;;;;7.03;6.45;;;;;;;;;;4991051;28;99776;-73
2022/09/06 09:40:40;;;;;;;6.18;5.63;;;;;;;;;;4969310;28;100466;-71
2022/09/06 09:43:14;;;;;;;7.47;5.70;;;;;;;;;;4975838;28;99964;-73
2022/09/06 09:45:40;;;;;;;8.65;5.70;;;;;;;;;;4979013;28;99528;-73
2022/09/06 09:48:25;;;;;;;16.20;6.80;;;;;;;;;;4982693;28;98577;-73
2022/09/06 09:50:53;;;;;;;6.22;5.82;;;;;;;;;;5001694;28;100576;-73
2022/09/06 09:53:21;;;;;;;10.95;5.40;;;;;;;;;;4972026;28;101039;-72
2022/09/06 09:55:48;;;;;;;6.47;5.80;;;;;;;;;;4974232;28;99249;-73
2022/09/06 09:58:32;;;;;;;6.30;5.72;;;;;;;;;;4984182;28;100810;-72
2022/09/06 10:01:09;;;;;;;8.32;6.00;;;;;;;;;;4971133;28;100482;-73
2022/09/06 10:03:36;;;;;;;7.15;6.30;;;;;;;;;;4985528;28;98771;-73
2022/09/06 10:06:26;;;;;;;10.50;6.10;;;;;;;;;;4981142;28;99721;-72
2022/09/06 10:09:13;;;;;;;12.35;6.78;;;;;;;;;;5003117;28;100288;-72
2022/09/06 10:11:44;;;;;;;;;;;;;;;;;;4989947;28;99079;-73
2022/09/06 10:14:24;;;;;;;8.85;7.70;;;;;;;;;;4981991;28;129792;-73
2022/09/06 10:16:51;;;;;;;10.50;7.15;;;;;;;;;;4975408;28;98480;-72
2022/09/06 10:19:21;;;;;;;5.90;5.20;;;;;;;;;;4970799;28;99451;-72
2022/09/06 10:21:50;;;;;;;6.72;5.90;;;;;;;;;;4980807;28;100143;-73
2022/09/06 10:24:29;;;;;;;7.28;6.55;;;;;;;;;;4970852;28;99387;-73
2022/09/06 10:26:58;;;;;;;8.55;6.80;;;;;;;;;;4985987;28;99994;-73
2022/09/06 10:29:30;;;;;;;9.02;6.88;;;;;;;;;;4976197;28;99969;-72
2022/09/06 10:32:05;;;;;;;7.43;6.50;;;;;;;;;;4989847;28;99965;-72
2022/09/06 10:34:41;;;;;;;10.15;6.57;;;;;;;;;;4989805;28;100362;-72
2022/09/06 10:37:24;;;;;;;6.18;5.57;;;;;;;;;;4977159;28;100367;-72
2022/09/06 10:39:50;;;;;;;5.28;4.80;;;;;;;;;;4970020;28;98523;-72
2022/09/06 10:42:19;;;;;;;11.23;4.70;;;;;;;;;;4972303;28;100446;-73
2022/09/06 10:44:57;;;;;;;5.30;4.00;;;;;;;;;;4979414;28;99271;-73
2022/09/06 10:47:28;;;;;;;5.70;3.83;;;;;;;;;;4977197;28;100120;-72
2022/09/06 10:49:57;;;;;;;4.13;3.70;;;;;;;;;;4976611;28;101799;-72
2022/09/06 10:52:26;;;;;;;6.57;3.30;;;;;;;;;;4977548;28;102246;-72
2022/09/06 10:54:54;;;;;;;4.80;4.03;;;;;;;;;;4973339;28;100433;-71
2022/09/06 10:57:33;;;;;;;3.58;3.13;;;;;;;;;;4972961;28;98479;-72
2022/09/06 11:00:20;;;;;;;5.93;3.38;;;;;;;;;;4982953;28;98947;-72
2022/09/06 11:03:06;;;;;;;2.83;2.30;;;;;;;;;;4976147;28;99760;-72
2022/09/06 11:05:53;;;;;;;7.43;2.28;;;;;;;;;;5008033;28;98644;-72
2022/09/06 11:08:26;;;;;;;3.67;2.35;;;;;;;;;;4993816;28;98931;-72
2022/09/06 11:11:22;;;;;;;6.63;2.60;;;;;;;;;;4972166;28;101196;-72
2022/09/06 11:13:49;;;;;;;8.25;2.70;;;;;;;;;;4974415;28;98570;-73
2022/09/06 11:16:24;;;;;;;3.78;2.80;;;;;;;;;;4976001;28;99468;-72
2022/09/06 11:18:53;;;;;;;6.53;2.10;;;;;;;;;;4974228;28;98928;-72
2022/09/06 11:21:22;;;;;;;5.78;2.65;;;;;;;;;;4973336;28;99174;-72
2022/09/06 11:24:07;;;;;;;6.25;2.58;;;;;;;;;;4975419;28;100746;-72
2022/09/06 11:26:39;;;;;;;3.55;2.15;;;;;;;;;;4990381;28;98534;-72
2022/09/06 11:29:07;;;;;;;7.53;2.50;;;;;;;;;;4992752;28;99073;-72
2022/09/06 11:31:48;;;;;;;9.13;1.85;;;;;;;;;;4991805;28;99394;-73
2022/09/06 11:34:35;;;;;;;3.83;2.22;;;;;;;;;;4977967;28;98621;-71
2022/09/06 11:37:06;;;;;;;12.25;2.28;;;;;;;;;;4974984;28;101194;-71
2022/09/06 11:39:36;;;;;;;3.55;1.98;;;;;;;;;;4980910;28;99446;-73
2022/09/06 11:42:42;;;;;;;6.18;2.50;;;;;;;;;;4975302;28;99780;-73
2022/09/06 11:45:20;;;;;;;3.90;2.20;;;;;;;;;;4981096;28;100493;-73
2022/09/06 11:47:50;;;;;;;8.32;2.30;;;;;;;;;;4987369;28;98899;-72
2022/09/06 11:50:19;;;;;;;4.82;2.75;;;;;;;;;;4975283;28;99131;-71
2022/09/06 11:52:58;;;;;;;4.95;2.30;;;;;;;;;;4988356;28;100512;-71
2022/09/06 11:55:30;;;;;;;3.03;2.38;;;;;;;;;;4976857;28;99871;-71
2022/09/06 11:57:58;;;;;;;2.83;2.22;;;;;;;;;;4979432;28;98642;-71
2022/09/06 12:00:24;;;;;;;2.60;2.40;;;;;;;;;;4977487;28;99917;-71
2022/09/06 12:02:51;;;;;;;4.20;3.00;;;;;;;;;;4970920;28;99926;-71
2022/09/06 12:05:21;;;;;;;9.68;3.20;;;;;;;;;;4971928;28;99202;-71
2022/09/06 12:08:06;;;;;;;6.25;3.00;;;;;;;;;;4971381;28;98552;-71
2022/09/06 12:10:38;;;;;;;5.05;2.15;;;;;;;;;;4972162;28;99288;-72
2022/09/06 12:13:30;;;;;;;7.03;3.30;;;;;;;;;;4971546;28;99415;-71
2022/09/06 12:15:58;;;;;;;6.90;3.85;;;;;;;;;;4977882;28;98612;-71
2022/09/06 12:18:57;;;;;;;5.22;3.22;;;;;;;;;;4972953;28;99933;-73
2022/09/06 12:21:40;;;;;;;7.15;3.70;;;;;;;;;;4974528;28;98902;-73
2022/09/06 12:24:08;;;;;;;7.78;4.25;;;;;;;;;;4995161;28;99020;-73
2022/09/06 12:26:51;;;;;;;6.53;3.80;;;;;;;;;;4971908;28;100315;-73
2022/09/06 12:29:23;;;;;;;16.85;3.70;;;;;;;;;;4971357;28;99864;-73
2022/09/06 12:32:00;;;;;;;11.55;4.25;;;;;;;;;;4975599;28;99940;-70
2022/09/06 12:34:30;;;;;;;3.83;3.30;;;;;;;;;;4981329;28;100224;-70
2022/09/06 12:37:00;;;;;;;13.45;4.13;;;;;;;;;;4976384;28;98926;-72
2022/09/06 12:39:26;;;;;;;6.72;3.10;;;;;;;;;;4972845;28;99332;-72
2022/09/06 12:41:55;;;;;;;8.93;3.58;;;;;;;;;;4975118;28;100375;-72
2022/09/06 12:44:26;;;;;;;7.03;4.60;;;;;;;;;;4975099;28;99353;-72
2022/09/06 12:46:52;;;;;;;14.77;4.53;;;;;;;;;;4971773;28;99733;-72
2022/09/06 12:49:20;;;;;;;6.43;3.67;;;;;;;;;;4971306;28;98829;-72
2022/09/06 12:51:47;;;;;;;7.35;5.57;;;;;;;;;;4971976;28;99163;-72
2022/09/06 12:54:21;;;;;;;9.10;4.38;;;;;;;;;;4971037;28;100414;-73
2022/09/06 12:56:48;;;;;;;12.25;4.45;;;;;;;;;;4972067;28;98569;-72
2022/09/06 12:59:18;;;;;;;11.13;4.70;;;;;;;;;;4974572;28;99958;-72
2022/09/06 13:01:48;;;;;;;6.93;4.30;;;;;;;;;;4970746;28;99917;-72
2022/09/06 13:04:33;;;;;;;7.00;4.50;;;;;;;;;;4970858;28;99293;-72
2022/09/06 13:07:01;;;;;;;4.70;4.10;;;;;;;;;;4974185;28;99878;-72
2022/09/06 13:09:28;;;;;;;7.10;4.38;;;;;;;;;;4971731;28;98482;-72
2022/09/06 13:11:57;;;;;;;7.47;4.55;;;;;;;;;;4970761;28;99873;-72
2022/09/06 13:14:26;;;;;;;6.20;4.38;;;;;;;;;;4969513;28;100484;-72
2022/09/06 13:16:55;;;;;;;7.55;4.10;;;;;;;;;;4972147;28;98516;-72
2022/09/06 13:19:35;;;;;;;7.78;4.38;;;;;;;;;;4970404;28;99636;-73
2022/09/06 13:22:04;;;;;;;6.70;4.70;;;;;;;;;;4970921;28;99667;-72
2022/09/06 13:24:36;;;;;;;8.80;3.95;;;;;;;;;;4970354;28;98494;-72
2022/09/06 13:27:22;;;;;;;11.48;4.38;;;;;;;;;;4971413;28;99963;-73
2022/09/06 13:29:55;;;;;;;13.55;4.85;;;;;;;;;;4973870;28;100246;-72
2022/09/06 13:32:22;;;;;;;5.72;5.20;;;;;;;;;;4974090;28;99922;-72
2022/09/06 13:34:55;;;;;;;9.57;5.32;;;;;;;;;;4970664;28;99657;-72
2022/09/06 13:37:25;;;;;;;4.78;4.18;;;;;;;;;;4971962;28;97879;-72
2022/09/06 13:39:52;;;;;;;7.43;4.45;;;;;;;;;;4969979;28;99323;-71
2022/09/06 13:42:29;;;;;;;5.78;4.32;;;;;;;;;;4970827;28;100367;-72
2022/09/06 13:44:56;;;;;;;8.30;4.97;;;;;;;;;;4970642;28;99347;-72
2022/09/06 13:47:28;;;;;;;7.88;4.28;;;;;;;;;;4970231;28;100746;-72
2022/09/06 13:49:54;;;;;;;7.40;5.10;;;;;;;;;;4973422;28;99730;-73
2022/09/06 13:52:21;;;;;;;6.03;5.10;;;;;;;;;;4973565;28;98685;-71
2022/09/06 13:54:47;;;;;;;8.57;4.85;;;;;;;;;;4970223;28;100208;-71
2022/09/06 13:57:14;;;;;;;13.82;4.90;;;;;;;;;;4981326;28;99038;-72
2022/09/06 13:59:41;;;;;;;8.30;4.43;;;;;;;;;;4989652;28;99221;-72
2022/09/06 14:02:10;;;;;;;7.72;4.57;;;;;;;;;;4990425;28;99509;-72
2022/09/06 14:04:37;;;;;;;6.28;4.03;;;;;;;;;;4990639;28;98393;-71
2022/09/06 14:07:04;;;;;;;8.23;4.53;;;;;;;;;;4990417;28;99235;-72
2022/09/06 14:09:30;;;;;;;6.18;4.00;;;;;;;;;;4976258;28;100431;-71
2022/09/06 14:11:56;;;;;;;4.15;3.50;;;;;;;;;;4970551;28;98463;-71
2022/09/06 14:14:23;;;;;;;5.82;4.00;;;;;;;;;;4972570;28;99981;-70
2022/09/06 14:16:49;;;;;;;6.53;4.38;;;;;;;;;;4985930;28;98604;-71
2022/09/06 14:19:16;;;;;;;7.85;4.15;;;;;;;;;;4997365;28;99934;-71
2022/09/06 14:21:42;;;;;;;5.25;3.85;;;;;;;;;;4979047;28;99421;-71
2022/09/06 14:24:09;;;;;;;13.35;4.13;;;;;;;;;;4988962;28;98657;-71
2022/09/06 14:26:35;;;;;;;7.82;4.10;;;;;;;;;;4979399;28;99920;-71
2022/09/06 14:29:02;;;;;;;7.15;4.07;;;;;;;;;;4992648;28;100380;-71
2022/09/06 14:31:28;;;;;;;8.68;3.45;;;;;;;;;;4990495;28;98600;-71
2022/09/06 14:33:55;;;;;;;3.85;3.30;;;;;;;;;;4972691;28;99133;-71
2022/09/06 14:36:23;;;;;;;3.65;3.25;;;;;;;;;;4975993;28;99513;-71
2022/09/06 14:38:50;;;;;;;3.45;2.47;;;;;;;;;;4973639;28;100720;-71
2022/09/06 14:41:17;;;;;;;6.20;2.42;;;;;;;;;;4974823;28;100187;-71
2022/09/06 14:43:46;;;;;;;5.60;2.47;;;;;;;;;;4972580;28;98782;-71
2022/09/06 14:46:13;;;;;;;3.85;2.92;;;;;;;;;;4973807;28;99100;-71
2022/09/06 14:48:41;;;;;;;6.75;2.67;;;;;;;;;;4972547;28;100307;-71
2022/09/06 14:51:09;;;;;;;7.70;2.97;;;;;;;;;;4974387;28;97898;-71